Time;durP1;ratioP1;P1;durP2;ratioP2;P2;SDS_P1;SDS_P2;PMS_P1;PMS_P2;Temp;Humidity;BMP_temperature;BMP_pressure;BME280_temperature;BME280_humidity;BME280_pressure;Samples;Min_cycle;Max_cycle;Signal;HPM_P1;HPM_P2
2022/10/22 00:00:07;;;;;;;8.30;4.70;;;;;;;16.39;62.62;100864.75;5021747;28;109311;-70
2022/10/22 00:02:35;;;;;;;7.93;4.90;;;;;;;16.37;62.76;100866.66;5028155;28;124556;-70
2022/10/22 00:05:02;;;;;;;6.88;4.78;;;;;;;16.35;62.65;100869.44;5024562;28;124738;-70
2022/10/22 00:07:30;;;;;;;8.02;5.00;;;;;;;16.32;62.74;100868.78;5028785;28;109932;-70
2022/10/22 00:09:57;;;;;;;7.95;5.35;;;;;;;16.32;62.83;100874.13;5003071;28;107022;-72
2022/10/22 00:12:24;;;;;;;13.70;5.13;;;;;;;16.30;63.12;100873.38;5031919;28;123959;-72
2022/10/22 00:14:51;;;;;;;7.47;4.85;;;;;;;16.30;62.98;100876.06;5025569;28;124462;-72
2022/10/22 00:17:18;;;;;;;8.48;5.07;;;;;;;16.28;63.08;100870.81;5009682;28;108950;-69
2022/10/22 00:19:45;;;;;;;9.23;5.65;;;;;;;16.28;63.13;100867.28;5028424;28;109892;-69
2022/10/22 00:22:12;;;;;;;9.45;5.28;;;;;;;16.27;63.18;100865.56;5025919;27;123923;-70
2022/10/22 00:24:39;;;;;;;7.93;5.35;;;;;;;16.26;63.25;100869.22;5005159;28;123492;-70
2022/10/22 00:27:08;;;;;;;9.43;5.57;;;;;;;16.25;63.25;100864.81;5025011;28;110107;-70
2022/10/22 00:29:35;;;;;;;10.60;5.38;;;;;;;16.24;63.18;100863.13;5028992;28;109611;-70
2022/10/22 00:32:04;;;;;;;10.27;5.85;;;;;;;16.22;63.26;100867.69;5006353;28;123153;-70
2022/10/22 00:34:31;;;;;;;9.30;5.88;;;;;;;16.21;63.33;100866.00;5021766;28;123679;-70
2022/10/22 00:36:58;;;;;;;9.20;5.22;;;;;;;16.19;63.21;100862.56;5021272;28;109085;-70
2022/10/22 00:39:26;;;;;;;10.48;5.45;;;;;;;16.18;63.17;100866.19;5026498;28;108022;-70
2022/10/22 00:41:55;;;;;;;6.53;4.97;;;;;;;16.16;63.24;100863.63;5012750;28;123889;-70
2022/10/22 00:45:00;;;;;;;7.22;5.55;;;;;;;16.12;63.03;100867.47;5011964;28;123228;-70
2022/10/22 00:47:32;;;;;;;6.85;4.63;;;;;;;16.08;63.15;100866.81;5028772;28;109088;-70
2022/10/22 00:49:59;;;;;;;13.82;5.57;;;;;;;16.06;63.31;100866.06;5007075;28;108428;-70
2022/10/22 00:52:27;;;;;;;8.25;5.20;;;;;;;16.04;63.43;100864.47;5022622;28;124871;-70
2022/10/22 00:54:56;;;;;;;8.80;5.90;;;;;;;16.03;63.27;100878.78;5027658;28;124479;-70
2022/10/22 00:57:23;;;;;;;8.38;5.93;;;;;;;16.02;63.28;100872.59;5010450;28;107907;-70
2022/10/22 00:59:50;;;;;;;7.78;5.65;;;;;;;16.01;63.43;100870.88;5028101;27;108119;-70
2022/10/22 01:02:17;;;;;;;7.90;5.35;;;;;;;15.99;63.34;100867.44;5026006;28;123434;-70
2022/10/22 01:04:44;;;;;;;8.63;5.13;;;;;;;15.97;63.31;100874.69;5026446;28;124524;-70
2022/10/22 01:07:21;;;;;;;7.68;5.22;;;;;;;15.94;63.41;100881.13;5021980;27;108652;-70
2022/10/22 01:10:29;;;;;;;13.68;5.25;;;;;;;15.91;63.35;100880.47;5024608;28;109027;-70
2022/10/22 01:13:05;;;;;;;14.90;6.00;;;;;;;15.87;63.31;100884.31;5007953;28;123124;-70
2022/10/22 01:16:03;;;;;;;8.15;5.18;;;;;;;15.83;63.48;100877.47;5020405;28;123816;-70
2022/10/22 01:18:40;;;;;;;8.68;5.00;;;;;;;15.81;63.40;100874.88;5026457;28;110128;-70
2022/10/22 01:21:09;;;;;;;6.85;4.90;;;;;;;15.77;63.63;100868.88;5027666;28;110017;-70
2022/10/22 01:24:03;;;;;;;8.20;4.57;;;;;;;15.75;63.50;100869.97;5025930;28;124838;-70
2022/10/22 01:26:52;;;;;;;13.50;4.22;;;;;;;15.69;63.38;100876.53;5024521;28;123948;-70
2022/10/22 01:29:23;;;;;;;4.70;3.90;;;;;;;15.64;63.35;100881.31;5006857;28;105560;-70
2022/10/22 01:32:06;;;;;;;8.80;4.43;;;;;;;15.61;63.55;100873.50;5007259;28;109041;-70
2022/10/22 01:34:33;;;;;;;7.97;4.53;;;;;;;15.57;63.62;100871.97;4990860;28;124745;-70
2022/10/22 01:37:01;;;;;;;6.55;4.50;;;;;;;15.55;63.72;100871.22;5009751;28;123576;-70
2022/10/22 01:39:30;;;;;;;7.55;4.90;;;;;;;15.55;63.65;100873.91;4987131;28;109049;-70
2022/10/22 01:41:57;;;;;;;6.40;4.93;;;;;;;15.53;63.59;100870.47;5001621;28;109101;-70
2022/10/22 01:44:24;;;;;;;8.57;4.90;;;;;;;15.51;63.64;100867.06;5022175;28;123622;-70
2022/10/22 01:47:04;;;;;;;9.73;4.93;;;;;;;15.50;63.59;100865.31;5006975;28;121893;-69
2022/10/22 01:49:45;;;;;;;7.88;4.88;;;;;;;15.46;63.58;100864.66;5016345;28;109410;-70
2022/10/22 01:52:28;;;;;;;9.95;5.72;;;;;;;15.45;63.63;100867.47;5023223;27;108028;-70
2022/10/22 01:55:09;;;;;;;7.95;5.40;;;;;;;15.42;63.57;100856.97;5012627;28;123434;-70
2022/10/22 01:57:52;;;;;;;9.13;5.95;;;;;;;15.38;63.76;100862.50;5004723;28;122007;-70
2022/10/22 02:00:19;;;;;;;8.23;5.72;;;;;;;15.36;63.66;100859.06;4985313;28;109166;-70
2022/10/22 02:03:03;;;;;;;7.15;5.38;;;;;;;15.34;63.78;100861.00;5005164;28;107928;-70
2022/10/22 02:05:43;;;;;;;7.95;5.15;;;;;;;15.29;63.73;100863.09;5001675;28;124903;-70
2022/10/22 02:08:18;;;;;;;10.52;5.38;;;;;;;15.26;63.88;100857.97;4999325;28;123703;-71
2022/10/22 02:10:46;;;;;;;10.50;5.82;;;;;;;15.24;63.87;100854.56;4987398;28;109758;-70
2022/10/22 02:13:40;;;;;;;9.85;5.82;;;;;;;15.22;64.15;100853.81;4983818;28;110206;-70
2022/10/22 02:16:12;;;;;;;11.38;5.55;;;;;;;15.21;64.14;100854.75;4992503;28;125744;-70
2022/10/22 02:18:43;;;;;;;7.53;4.60;;;;;;;15.22;64.09;100860.91;5003040;28;123876;-70
2022/10/22 02:21:11;;;;;;;6.35;4.30;;;;;;;15.21;64.11;100870.75;5005097;28;109324;-70
2022/10/22 02:23:38;;;;;;;7.47;4.88;;;;;;;15.17;64.07;100853.22;5000594;28;109152;-70
2022/10/22 02:26:18;;;;;;;6.72;5.07;;;;;;;15.14;64.01;100859.63;5007671;28;124685;-70
2022/10/22 02:29:02;;;;;;;8.10;4.72;;;;;;;15.14;64.09;100861.41;5008670;28;122768;-70
2022/10/22 02:31:34;;;;;;;70.93;6.47;;;;;;;15.10;64.16;100860.75;5005839;28;108817;-70
2022/10/22 02:34:07;;;;;;;8.30;5.32;;;;;;;15.08;64.32;100864.47;5001919;28;109004;-70
2022/10/22 02:36:37;;;;;;;7.45;5.85;;;;;;;15.07;64.27;100862.75;5001459;28;124447;-71
2022/10/22 02:39:06;;;;;;;10.32;6.30;;;;;;;15.06;64.35;100866.41;4969679;28;122574;-70
2022/10/22 02:41:35;;;;;;;13.00;6.43;;;;;;;15.05;64.29;100859.34;5010389;28;109041;-70
2022/10/22 02:44:08;;;;;;;9.10;5.68;;;;;;;15.04;64.28;100862.97;5012197;28;108043;-70
2022/10/22 02:46:36;;;;;;;9.43;5.75;;;;;;;15.03;64.29;100855.91;5005449;28;124636;-70
2022/10/22 02:49:03;;;;;;;8.52;6.07;;;;;;;15.04;64.25;100862.97;4986204;28;123936;-70
2022/10/22 02:51:30;;;;;;;7.28;5.53;;;;;;;15.04;64.19;100862.97;5005363;28;108799;-70
2022/10/22 02:53:57;;;;;;;9.73;5.68;;;;;;;15.02;64.19;100859.53;5009364;28;107952;-70
2022/10/22 02:56:25;;;;;;;11.85;6.13;;;;;;;14.99;64.29;100861.47;5006573;28;125569;-70
2022/10/22 02:58:51;;;;;;;12.68;6.50;;;;;;;14.99;64.47;100850.78;4987432;28;123441;-70
2022/10/22 03:01:19;;;;;;;10.70;6.25;;;;;;;15.01;64.52;100860.50;5005534;28;110382;-70
2022/10/22 03:03:46;;;;;;;9.65;6.05;;;;;;;15.01;64.56;100863.16;5009334;28;109488;-70
2022/10/22 03:06:13;;;;;;;12.23;6.32;;;;;;;15.01;64.45;100863.16;4991195;28;123340;-70
2022/10/22 03:08:41;;;;;;;9.13;6.38;;;;;;;15.02;64.36;100865.72;5007722;28;123718;-70
2022/10/22 03:11:08;;;;;;;10.18;5.93;;;;;;;15.02;64.69;100864.88;5008746;28;108967;-70
2022/10/22 03:13:35;;;;;;;11.10;6.75;;;;;;;15.03;64.72;100866.56;4972651;28;107958;-70
2022/10/22 03:16:02;;;;;;;14.02;6.53;;;;;;;15.04;64.79;100868.31;5008387;28;124404;-70
2022/10/22 03:18:29;;;;;;;11.68;6.10;;;;;;;15.04;64.69;100873.63;5005184;28;125171;-70
2022/10/22 03:21:22;;;;;;;14.93;6.55;;;;;;;15.04;64.49;100873.63;5004022;28;109684;-70
2022/10/22 03:23:50;;;;;;;8.32;6.10;;;;;;;15.02;64.58;100870.22;5003698;28;109566;-70
2022/10/22 03:26:17;;;;;;;9.00;5.65;;;;;;;15.02;64.54;100872.88;4991831;28;123093;-70
2022/10/22 03:28:46;;;;;;;12.23;6.53;;;;;;;15.01;64.58;100871.16;5010680;28;123051;-70
2022/10/22 03:31:13;;;;;;;12.63;6.13;;;;;;;15.02;64.72;100875.56;5008933;28;109494;-70
2022/10/22 03:33:40;;;;;;;10.77;6.10;;;;;;;15.03;64.82;100877.25;5010722;28;109529;-70
2022/10/22 03:36:08;;;;;;;10.98;6.30;;;;;;;15.03;65.01;100882.56;4999438;28;124064;-70
2022/10/22 03:38:37;;;;;;;13.40;6.63;;;;;;;15.06;64.96;100882.41;5008747;28;124258;-70
2022/10/22 03:41:05;;;;;;;12.02;6.65;;;;;;;15.08;65.24;100885.81;5007410;28;109224;-70
2022/10/22 03:43:34;;;;;;;14.57;6.70;;;;;;;15.09;65.37;100892.88;5000737;28;108694;-70
2022/10/22 03:46:01;;;;;;;11.52;6.63;;;;;;;15.11;65.38;100885.63;4986341;28;124662;-70
2022/10/22 03:48:28;;;;;;;11.65;6.60;;;;;;;15.15;65.41;100892.50;5004142;28;123715;-70
2022/10/22 03:50:55;;;;;;;13.68;7.18;;;;;;;15.18;65.50;100892.28;5003080;28;109801;-70
2022/10/22 03:53:22;;;;;;;14.13;6.53;;;;;;;15.20;65.35;100895.72;4995122;28;110262;-70
2022/10/22 03:55:50;;;;;;;12.55;6.70;;;;;;;15.23;65.58;100900.84;5003959;28;123830;-70
2022/10/22 03:58:16;;;;;;;14.05;6.72;;;;;;;15.25;65.44;100909.63;5003651;28;125305;-70
2022/10/22 04:00:43;;;;;;;11.70;6.75;;;;;;;15.27;65.45;100912.19;5003725;28;107630;-71
2022/10/22 04:03:11;;;;;;;14.23;6.82;;;;;;;15.27;65.33;100910.38;5006585;28;109142;-70
2022/10/22 04:05:37;;;;;;;11.35;6.25;;;;;;;15.29;65.33;100916.47;4990732;28;124651;-69
2022/10/22 04:08:05;;;;;;;12.25;6.68;;;;;;;15.30;65.39;100917.34;5011039;28;123871;-70
2022/10/22 04:10:32;;;;;;;12.13;6.30;;;;;;;15.31;65.32;100919.03;4993263;28;110274;-70
2022/10/22 04:12:59;;;;;;;10.32;6.25;;;;;;;15.33;65.40;100917.13;4985483;28;108898;-70
2022/10/22 04:15:27;;;;;;;11.68;6.60;;;;;;;15.33;65.42;100912.66;4987695;28;123226;-70
2022/10/22 04:17:55;;;;;;;11.00;6.07;;;;;;;15.34;65.39;100919.69;5004973;28;123706;-70
2022/10/22 04:20:22;;;;;;;15.88;6.60;;;;;;;15.37;65.58;100919.53;5000568;28;110576;-70
2022/10/22 04:22:49;;;;;;;14.52;6.18;;;;;;;15.40;65.85;100917.59;5006612;28;108887;-70
2022/10/22 04:25:16;;;;;;;13.10;6.40;;;;;;;15.43;65.80;100917.41;5000195;28;123854;-70
2022/10/22 04:27:43;;;;;;;12.35;5.93;;;;;;;15.47;66.02;100913.59;5005571;28;123135;-70
2022/10/22 04:30:10;;;;;;;10.43;5.78;;;;;;;15.51;66.21;100923.97;5006769;28;109662;-71
2022/10/22 04:32:37;;;;;;;14.85;6.55;;;;;;;15.56;66.20;100921.00;4991506;28;109047;-70
2022/10/22 04:35:04;;;;;;;15.18;6.13;;;;;;;15.62;66.26;100923.28;5007651;28;123935;-70
2022/10/22 04:37:31;;;;;;;12.02;6.13;;;;;;;15.68;66.27;100922.00;5002674;28;124000;-69
2022/10/22 04:39:58;;;;;;;14.68;5.65;;;;;;;15.72;66.38;100921.69;4982260;28;109684;-70
2022/10/22 04:42:25;;;;;;;12.30;6.05;;;;;;;15.75;66.38;100916.19;5004982;28;109760;-69
2022/10/22 04:44:52;;;;;;;14.65;6.15;;;;;;;15.82;66.42;100918.47;5003394;28;124211;-69
2022/10/22 04:47:19;;;;;;;11.20;6.03;;;;;;;15.85;66.48;100924.47;5001212;28;125159;-70
2022/10/22 04:49:46;;;;;;;15.45;5.95;;;;;;;15.88;66.58;100918.06;4988507;28;108658;-70
2022/10/22 04:52:13;;;;;;;10.00;5.82;;;;;;;15.91;66.61;100917.84;5002255;28;108732;-70
2022/10/22 04:54:40;;;;;;;10.32;5.95;;;;;;;15.94;66.40;100923.00;5002906;28;124010;-70
2022/10/22 04:57:07;;;;;;;10.25;5.65;;;;;;;15.98;66.27;100919.16;5001650;28;123901;-70
2022/10/22 04:59:35;;;;;;;10.07;5.70;;;;;;;15.99;66.55;100926.22;5001943;28;109970;-70
2022/10/22 05:02:02;;;;;;;11.40;5.80;;;;;;;16.03;66.41;100927.75;5006433;28;108132;-70
2022/10/22 05:04:29;;;;;;;10.15;6.00;;;;;;;16.05;66.42;100936.50;5005880;28;123288;-70
2022/10/22 05:06:56;;;;;;;13.65;5.88;;;;;;;16.07;66.32;100923.91;5001130;28;123820;-70
2022/10/22 05:09:23;;;;;;;9.50;5.72;;;;;;;16.09;66.35;100931.81;4997903;28;109230;-70
2022/10/22 05:11:51;;;;;;;13.50;6.35;;;;;;;16.10;66.29;100934.38;4990360;28;108891;-70
2022/10/22 05:14:21;;;;;;;15.90;6.07;;;;;;;16.11;66.33;100941.44;4999184;28;125161;-70
2022/10/22 05:16:49;;;;;;;13.10;5.30;;;;;;;16.13;66.36;100950.19;4982089;28;124782;-70
2022/10/22 05:19:25;;;;;;;11.55;5.22;;;;;;;16.13;66.43;100936.84;4983613;28;109493;-70
2022/10/22 05:21:55;;;;;;;10.95;5.60;;;;;;;16.17;66.56;100937.50;4997959;28;108621;-70
2022/10/22 05:24:22;;;;;;;12.45;5.70;;;;;;;16.19;66.34;100932.91;4994144;28;123938;-70
2022/10/22 05:26:51;;;;;;;11.35;4.93;;;;;;;16.21;66.50;100936.31;4993917;28;122733;-70
2022/10/22 05:29:19;;;;;;;12.75;5.50;;;;;;;16.24;66.43;100940.63;4996156;28;110879;-70
2022/10/22 05:31:47;;;;;;;8.05;4.95;;;;;;;16.26;66.41;100941.38;4999141;28;110121;-70
2022/10/22 05:34:14;;;;;;;14.90;5.15;;;;;;;16.27;66.29;100935.06;4996064;28;124817;-70
2022/10/22 05:36:41;;;;;;;7.55;4.90;;;;;;;16.29;66.50;100933.13;4984647;28;123147;-70
2022/10/22 05:39:08;;;;;;;9.82;5.10;;;;;;;16.31;66.11;100936.56;4998035;28;109114;-70
2022/10/22 05:41:36;;;;;;;11.93;5.32;;;;;;;16.33;66.48;100939.97;5002373;28;109625;-69
2022/10/22 05:44:04;;;;;;;10.60;4.85;;;;;;;16.35;66.51;100948.78;4989701;28;123903;-70
2022/10/22 05:46:34;;;;;;;9.63;4.75;;;;;;;16.38;66.65;100937.00;5008106;28;123974;-70
2022/10/22 05:49:04;;;;;;;10.02;4.90;;;;;;;16.41;66.48;100948.34;4987390;28;108615;-70
2022/10/22 05:51:34;;;;;;;10.35;4.70;;;;;;;16.43;66.56;100951.78;5006391;28;109647;-70
2022/10/22 05:54:03;;;;;;;12.48;5.10;;;;;;;16.46;66.61;100948.91;5005520;28;124158;-70
2022/10/22 05:56:31;;;;;;;9.68;5.07;;;;;;;16.48;66.66;100949.66;4980304;28;123305;-70
2022/10/22 05:58:59;;;;;;;8.63;4.82;;;;;;;16.53;66.56;100958.19;5004579;28;110017;-70
2022/10/22 06:01:29;;;;;;;12.80;5.38;;;;;;;16.55;66.70;100961.63;5002872;28;109170;-70
2022/10/22 06:03:58;;;;;;;14.10;4.60;;;;;;;16.59;66.61;100964.09;5008436;28;125514;-70
2022/10/22 06:06:38;;;;;;;10.63;4.53;;;;;;;16.62;66.56;100977.25;5011814;28;124335;-70
2022/10/22 06:09:13;;;;;;;10.27;4.65;;;;;;;16.66;66.60;100974.25;4991524;28;109497;-70
2022/10/22 06:11:41;;;;;;;15.18;4.57;;;;;;;16.69;66.53;100973.22;5008093;28;109148;-70
2022/10/22 06:14:08;;;;;;;11.02;4.68;;;;;;;16.70;66.29;100974.91;5009546;28;124824;-70
2022/10/22 06:16:35;;;;;;;11.57;4.80;;;;;;;16.72;66.41;100979.19;5004163;28;124111;-70
2022/10/22 06:19:03;;;;;;;12.55;4.55;;;;;;;16.74;66.39;100987.09;5007460;28;110223;-70
2022/10/22 06:21:30;;;;;;;8.38;4.55;;;;;;;16.77;66.42;100986.06;5007620;28;109609;-70
2022/10/22 06:23:59;;;;;;;13.90;4.10;;;;;;;16.77;66.48;100992.25;5005392;28;123823;-70
2022/10/22 06:26:27;;;;;;;12.07;4.43;;;;;;;16.79;66.34;100995.69;5007884;28;124942;-70
2022/10/22 06:28:55;;;;;;;9.38;4.60;;;;;;;16.80;66.32;100992.06;5001594;28;109929;-70
2022/10/22 06:31:23;;;;;;;12.52;4.30;;;;;;;16.82;66.33;100995.50;4997868;28;109899;-70
2022/10/22 06:33:50;;;;;;;9.57;4.40;;;;;;;16.84;66.28;101003.41;4982551;28;123202;-70
2022/10/22 06:36:20;;;;;;;9.48;3.95;;;;;;;16.83;66.18;101007.91;5005460;28;124076;-70
2022/10/22 06:38:51;;;;;;;11.45;4.05;;;;;;;16.84;66.15;101009.63;4993591;28;109053;-70
2022/10/22 06:41:18;;;;;;;9.63;4.35;;;;;;;16.83;66.21;101013.25;4990423;28;108985;-70
2022/10/22 06:43:47;;;;;;;9.52;4.45;;;;;;;16.84;65.99;101014.97;4988885;28;123276;-70
2022/10/22 06:46:17;;;;;;;12.75;3.97;;;;;;;16.85;65.94;101032.72;5012941;28;123846;-72
2022/10/22 06:48:58;;;;;;;7.93;4.00;;;;;;;16.86;65.87;101038.97;5005721;28;109538;-70
2022/10/22 06:51:26;;;;;;;10.82;3.58;;;;;;;16.86;66.07;101039.81;4985686;28;110342;-70
2022/10/22 06:53:55;;;;;;;9.00;4.00;;;;;;;16.86;65.94;101042.47;5004881;28;124308;-71
2022/10/22 06:56:25;;;;;;;11.05;4.28;;;;;;;16.87;66.03;101041.50;4994351;28;123112;-70
2022/10/22 06:58:55;;;;;;;8.70;4.03;;;;;;;16.88;65.73;101048.59;5000044;28;109032;-70
2022/10/22 07:01:25;;;;;;;9.68;4.20;;;;;;;16.90;66.14;101049.34;4997649;28;108748;-70
2022/10/22 07:03:53;;;;;;;10.10;4.40;;;;;;;16.93;65.95;101050.94;4999682;28;122933;-71
2022/10/22 07:06:22;;;;;;;8.73;4.10;;;;;;;16.97;66.03;101062.28;5002085;28;123671;-71
2022/10/22 07:08:50;;;;;;;9.02;4.03;;;;;;;16.99;66.03;101060.34;4998154;28;110073;-71
2022/10/22 07:11:20;;;;;;;10.00;4.07;;;;;;;17.03;66.07;101067.25;4996316;28;109294;-70
2022/10/22 07:13:48;;;;;;;8.27;4.20;;;;;;;17.06;66.00;101058.97;5001300;28;125351;-72
2022/10/22 07:16:17;;;;;;;13.98;4.35;;;;;;;17.07;65.93;101064.22;4999801;28;123590;-70
2022/10/22 07:18:45;;;;;;;10.43;4.32;;;;;;;17.12;65.90;101063.91;4992697;28;109428;-70
2022/10/22 07:21:14;;;;;;;11.77;3.95;;;;;;;17.14;66.01;101070.03;4999288;28;109139;-70
2022/10/22 07:23:41;;;;;;;13.02;3.97;;;;;;;17.18;66.01;101070.66;4998224;28;124182;-70
2022/10/22 07:26:11;;;;;;;12.95;4.07;;;;;;;17.22;66.08;101083.72;4998553;28;123261;-70
2022/10/22 07:28:39;;;;;;;13.13;3.90;;;;;;;17.25;65.93;101083.53;5002450;28;109045;-70
2022/10/22 07:31:08;;;;;;;15.50;4.00;;;;;;;17.27;65.91;101086.94;4998206;28;108525;-70
2022/10/22 07:33:36;;;;;;;8.10;3.40;;;;;;;17.30;65.90;101086.72;4979806;28;124281;-70
2022/10/22 07:36:06;;;;;;;10.90;3.65;;;;;;;17.32;65.84;101090.16;4991329;28;123869;-71
2022/10/22 07:38:34;;;;;;;11.63;3.65;;;;;;;17.36;65.87;101100.66;4985332;28;108706;-71
2022/10/22 07:41:02;;;;;;;11.98;3.58;;;;;;;17.38;65.69;101096.03;5003024;28;108782;-70
2022/10/22 07:43:29;;;;;;;6.45;2.85;;;;;;;17.40;65.70;101097.63;5009933;28;123841;-70
2022/10/22 07:45:56;;;;;;;8.65;3.35;;;;;;;17.42;65.69;101100.22;5006156;28;124064;-71
2022/10/22 07:48:23;;;;;;;7.97;3.17;;;;;;;17.46;65.66;101107.06;5003501;28;109593;-70
2022/10/22 07:50:51;;;;;;;9.82;3.10;;;;;;;17.48;65.57;101111.38;5007717;28;108632;-70
2022/10/22 07:53:18;;;;;;;11.45;3.47;;;;;;;17.52;65.58;101117.38;5003789;28;124315;-70
2022/10/22 07:55:47;;;;;;;8.25;2.88;;;;;;;17.54;65.50;101110.09;4984339;28;123804;-71
2022/10/22 07:58:19;;;;;;;10.32;3.20;;;;;;;17.58;65.54;101116.94;5006470;28;110592;-70
2022/10/22 08:00:47;;;;;;;7.13;2.60;;;;;;;17.60;65.28;101119.50;5005375;28;110006;-69
2022/10/22 08:03:16;;;;;;;9.95;2.97;;;;;;;17.61;65.27;101122.09;4977358;28;123375;-70
2022/10/22 08:05:43;;;;;;;7.68;2.90;;;;;;;17.63;65.15;101125.50;5005659;28;122015;-70
2022/10/22 08:08:12;;;;;;;8.00;2.85;;;;;;;17.65;65.10;101128.94;4999946;28;109087;-70
2022/10/22 08:10:39;;;;;;;8.93;2.50;;;;;;;17.67;65.11;101127.00;4994113;28;109139;-70
2022/10/22 08:13:07;;;;;;;11.65;3.08;;;;;;;17.69;65.02;101125.06;5004790;28;123938;-70
2022/10/22 08:15:34;;;;;;;7.55;2.97;;;;;;;17.74;65.14;101126.56;4990507;28;123902;-70
2022/10/22 08:18:01;;;;;;;7.85;2.80;;;;;;;17.76;65.25;101132.66;5008862;28;109322;-70
2022/10/22 08:20:29;;;;;;;11.40;2.90;;;;;;;17.80;65.09;101131.47;5003775;28;109279;-70
2022/10/22 08:22:56;;;;;;;13.60;2.95;;;;;;;17.85;65.21;101135.56;4998637;28;123982;-70
2022/10/22 08:25:24;;;;;;;10.15;3.30;;;;;;;17.90;65.28;101148.66;4996380;28;124682;-70
2022/10/22 08:27:51;;;;;;;7.65;2.95;;;;;;;17.96;64.99;101147.38;4993825;28;108736;-70
2022/10/22 08:30:18;;;;;;;11.30;2.67;;;;;;;18.00;65.28;101139.00;4977175;28;108115;-70
2022/10/22 08:32:45;;;;;;;10.82;2.95;;;;;;;18.07;65.13;101150.13;5003378;28;123969;-70
2022/10/22 08:35:17;;;;;;;10.85;2.60;;;;;;;18.12;64.97;101152.47;5000641;28;123843;-69
2022/10/22 08:37:44;;;;;;;7.38;2.50;;;;;;;18.18;64.77;101152.06;5010179;28;109558;-70
2022/10/22 08:40:24;;;;;;;9.55;2.38;;;;;;;18.24;64.91;101156.97;5007854;28;110381;-70
2022/10/22 08:43:19;;;;;;;9.05;2.30;;;;;;;18.32;64.89;101154.56;5014228;28;123805;-71
2022/10/22 08:46:09;;;;;;;8.07;2.33;;;;;;;18.39;64.65;101150.47;5005144;28;123884;-69
2022/10/22 08:48:47;;;;;;;7.95;2.40;;;;;;;18.48;64.62;101155.19;4974152;28;109843;-70
2022/10/22 08:51:20;;;;;;;9.13;2.30;;;;;;;18.57;64.39;101163.50;5005741;28;109967;-70
2022/10/22 08:54:11;;;;;;;7.63;2.33;;;;;;;18.65;64.33;101167.34;5001014;28;123870;-70
2022/10/22 08:56:43;;;;;;;9.93;2.70;;;;;;;18.73;64.14;101169.47;5005794;28;124281;-69
2022/10/22 08:59:37;;;;;;;11.25;2.38;;;;;;;18.79;63.99;101178.88;5007586;28;109855;-69
2022/10/22 09:02:32;;;;;;;12.65;2.25;;;;;;;18.84;63.74;101180.28;5011884;28;109739;-70
2022/10/22 09:05:20;;;;;;;9.82;2.60;;;;;;;18.94;63.92;101188.50;5003844;28;124124;-71
2022/10/22 09:07:49;;;;;;;8.98;2.40;;;;;;;19.02;63.64;101183.44;4997688;28;124015;-70
2022/10/22 09:10:20;;;;;;;9.30;2.28;;;;;;;19.09;63.52;101191.84;5007214;28;109010;-70
2022/10/22 09:12:47;;;;;;;9.93;2.13;;;;;;;19.17;63.13;101194.81;5004790;28;109098;-70
2022/10/22 09:15:17;;;;;;;9.30;2.35;;;;;;;19.23;63.11;101199.75;5002136;28;124672;-70
2022/10/22 09:18:32;;;;;;;8.18;2.30;;;;;;;19.30;62.99;101199.25;5009264;28;124136;-70
2022/10/22 09:21:12;;;;;;;8.80;2.33;;;;;;;19.34;62.78;101200.72;5001199;28;108786;-70
2022/10/22 09:23:57;;;;;;;8.75;2.25;;;;;;;19.37;62.76;101197.81;5000904;28;109736;-71
2022/10/22 09:26:25;;;;;;;7.53;2.30;;;;;;;19.40;62.57;101205.63;4999728;28;124854;-70
2022/10/22 09:28:52;;;;;;;8.23;2.17;;;;;;;19.44;62.51;101212.50;4983283;28;123600;-71
2022/10/22 09:31:19;;;;;;;10.38;2.20;;;;;;;19.47;62.18;101206.88;4990628;28;109711;-71
2022/10/22 09:33:49;;;;;;;9.45;2.08;;;;;;;19.49;61.94;101210.28;5000577;28;109354;-71
2022/10/22 09:36:20;;;;;;;8.75;2.13;;;;;;;19.52;62.07;101214.59;4999297;28;123659;-72
2022/10/22 09:38:52;;;;;;;8.38;2.40;;;;;;;19.55;61.93;101214.34;4998591;28;123974;-70
2022/10/22 09:41:24;;;;;;;11.25;2.85;;;;;;;19.57;61.65;101221.34;5002906;28;110565;-70
2022/10/22 09:43:51;;;;;;;11.00;2.40;;;;;;;19.60;61.71;101222.91;4982870;28;109096;-71
2022/10/22 09:46:23;;;;;;;7.25;2.42;;;;;;;19.61;61.71;101230.88;5002570;28;123153;-71
2022/10/22 09:48:59;;;;;;;7.70;2.30;;;;;;;19.63;61.45;101228.91;4998567;28;124081;-70
2022/10/22 09:51:40;;;;;;;8.88;2.22;;;;;;;19.64;61.42;101238.66;5001081;28;108874;-70
2022/10/22 09:54:23;;;;;;;7.07;2.10;;;;;;;19.62;61.35;101237.09;5004646;28;108635;-70
2022/10/22 09:56:54;;;;;;;11.10;2.67;;;;;;;19.63;61.31;101238.81;4981513;28;123792;-70
2022/10/22 09:59:31;;;;;;;14.13;2.63;;;;;;;19.62;61.34;101240.63;4988536;28;122820;-70
2022/10/22 10:02:10;;;;;;;7.63;2.30;;;;;;;19.64;61.14;101252.09;5003995;28;108916;-70
2022/10/22 10:04:52;;;;;;;8.98;2.55;;;;;;;19.64;61.07;101253.94;4985154;28;108645;-70
2022/10/22 10:07:25;;;;;;;11.32;2.55;;;;;;;19.62;61.29;101256.75;5001820;28;124344;-70
2022/10/22 10:09:53;;;;;;;8.18;2.80;;;;;;;19.64;61.31;101268.22;4976596;28;123901;-71
2022/10/22 10:12:42;;;;;;;11.43;2.47;;;;;;;19.67;61.05;101260.94;4999347;28;108921;-70
2022/10/22 10:15:37;;;;;;;11.93;2.47;;;;;;;19.68;61.22;101273.38;5005626;28;109329;-71
2022/10/22 10:18:32;;;;;;;9.45;2.40;;;;;;;19.70;61.29;101279.50;5002683;28;123974;-71
2022/10/22 10:21:05;;;;;;;12.77;2.50;;;;;;;19.72;61.13;101277.53;5003803;28;125235;-71
2022/10/22 10:24:11;;;;;;;11.82;2.55;;;;;;;19.75;61.16;101269.28;4972697;28;108118;-71
2022/10/22 10:26:57;;;;;;;12.18;2.40;;;;;;;19.78;61.17;101282.50;4997244;28;109520;-71
2022/10/22 10:29:31;;;;;;;10.48;2.60;;;;;;;19.82;60.99;101292.88;5001910;28;124737;-70
2022/10/22 10:32:05;;;;;;;11.88;2.63;;;;;;;19.87;60.84;101283.59;5001789;28;123913;-70
2022/10/22 10:34:32;;;;;;;13.37;2.30;;;;;;;19.90;60.99;101278.84;4999500;28;109935;-70
2022/10/22 10:37:08;;;;;;;6.43;2.13;;;;;;;19.96;60.85;101278.38;5010829;28;110598;-75
2022/10/22 10:39:51;;;;;;;8.48;2.25;;;;;;;20.00;60.78;101290.63;5003785;28;124133;-71
2022/10/22 10:42:30;;;;;;;6.03;2.13;;;;;;;20.04;60.55;101296.59;4995242;28;124751;-72
2022/10/22 10:45:16;;;;;;;9.70;2.45;;;;;;;20.07;60.60;101300.88;5005506;28;107997;-72
2022/10/22 10:48:05;;;;;;;9.70;2.13;;;;;;;20.11;60.44;101302.34;5000277;28;108685;-71
2022/10/22 10:51:10;;;;;;;8.25;2.20;;;;;;;20.15;60.45;101303.81;5004901;28;124115;-71
2022/10/22 10:54:20;;;;;;;7.38;1.95;;;;;;;20.16;60.24;101306.41;5004945;28;124857;-71
2022/10/22 10:56:56;;;;;;;7.30;2.20;;;;;;;20.18;60.12;101303.59;5002421;28;109433;-71
2022/10/22 11:00:14;;;;;;;9.57;2.15;;;;;;;20.22;60.19;101299.69;5002510;28;108656;-70
2022/10/22 11:03:20;;;;;;;10.85;2.30;;;;;;;20.27;60.26;101313.63;4964142;28;124103;-70
2022/10/22 11:05:53;;;;;;;8.70;2.30;;;;;;;20.33;60.00;101307.75;5008388;28;124503;-70
2022/10/22 11:08:42;;;;;;;10.98;2.20;;;;;;;20.38;59.74;101302.88;5014346;28;108466;-71
2022/10/22 11:11:20;;;;;;;8.07;2.22;;;;;;;20.46;59.83;101301.41;4981165;28;108928;-70
2022/10/22 11:14:18;;;;;;;7.00;2.20;;;;;;;20.52;60.03;101300.91;5006462;28;124658;-69
2022/10/22 11:16:54;;;;;;;9.63;2.08;;;;;;;20.61;59.96;101300.22;5001738;28;124272;-69
2022/10/22 11:19:44;;;;;;;9.73;2.40;;;;;;;20.71;59.60;101311.94;4999110;28;109242;-71
2022/10/22 11:22:42;;;;;;;8.20;2.22;;;;;;;20.78;59.48;101313.16;4999258;28;108745;-70
2022/10/22 11:25:38;;;;;;;5.55;2.25;;;;;;;20.86;58.96;101311.69;5001226;28;123829;-70
2022/10/22 11:28:13;;;;;;;7.13;2.20;;;;;;;20.90;58.70;101305.06;4996044;28;122813;-69
2022/10/22 11:30:52;;;;;;;6.72;1.90;;;;;;;20.96;58.63;101309.94;5000970;28;111542;-70
2022/10/22 11:33:23;;;;;;;9.68;2.28;;;;;;;21.03;58.61;101304.94;5024205;28;109292;-70
2022/10/22 11:35:51;;;;;;;9.15;2.45;;;;;;;21.11;58.52;101297.06;4990302;28;124160;-70
2022/10/22 11:38:25;;;;;;;8.35;2.35;;;;;;;21.19;58.46;101306.25;5005061;28;124730;-68